メインページ
METAR-TAF:

METAR-TAF

空港 :

イカルイト空港

イカルイト, ヌナブト準州, カナダ

緯度: 63-45N, 経度: 068-33W, 海抜: 34m

現時点の気象観測

当レポートは36分前の02:00(UTC)に作成
無風
気温 -13°C
湿度 85%
気圧 1001 hPa
視程: 24.1km
高度1300ftの雲は散在している
高度2800ftの千切れ雲あり
高度3800ftの曇り
氷晶

METAR: CYFB 150200Z 00000KT 15SM IC SCT013 BKN028 OVC038 M13/M15 A2957 RMK SC4SC3SC1 SLP019

時間: 21:36 (02:36 UTC)

予報

当レポートは2時間58分前の23:38(UTC)に作成
予報は15日の 00時(UTC)から 15日の 24時(UTC)まで有効
変向風 3kt
視程: 10km
高度1500ftの雲は散在している
高度3000ftの千切れ雲あり
15日の 00時(UTC)から 15日の 09時(UTC)まで一時的に
視程: 9.7km
高度1500ftの千切れ雲あり
高度3000ftの曇り
小雪
15日の 0900時(UTC)から
東/南東の風 8kt
視程: 10km
高度1200ftの雲は散在している
高度3000ftの曇り
15日の 09時(UTC)から 15日の 21時(UTC)まで一時的に
視程: 6.4km
高度1200ftの曇り
小雪
15日の 2100時(UTC)から
変向風 3kt
視程: 4.8km
高度800ftの千切れ雲あり
高度2500ftの曇り
小雪

TAF: CYFB 142338Z 1500/1524 VRB03KT P6SM SCT015 BKN030 TEMPO 1500/1509 6SM -SN BKN015 OVC030 FM150900 12008KT P6SM SCT012 OVC030 TEMPO 1509/1521 4SM -SN OVC012 FM152100 VRB03KT 3SM -SN BKN008 OVC025 RMK NXT FCST BY 150600Z

4,000以上の空港の気象観測と天気予報(METAR報とTAF報)

利用可能な観測所は地図上に黄色い丸と赤い丸で示す。

丸の上にカーソルを重ねると観測所名を参照できる。

次にクリックすると気象観測と天気予報を参照できる。

マップの切り替え:黒色「×」印の緑ボタンをクリックして拡大、「-」印の緑ボタンをクリックして縮小、緑色の三角印をクリックして隣りの地図に切り替え


METAR-TAF: